sensor_id;sensor_type;location;lat;lon;timestamp;P1;durP1;ratioP1;P2;durP2;ratioP2
74624;SDS011;63131;52.298;8.056;2023-03-26T00:02:39;4.55;;;1.17;;
74624;SDS011;63131;52.298;8.056;2023-03-26T00:06:06;4.38;;;1.50;;
74624;SDS011;63131;52.298;8.056;2023-03-26T00:09:30;7.05;;;2.17;;
74624;SDS011;63131;52.298;8.056;2023-03-26T00:12:54;9.32;;;1.83;;
74624;SDS011;63131;52.298;8.056;2023-03-26T00:16:23;5.75;;;1.83;;
74624;SDS011;63131;52.298;8.056;2023-03-26T00:19:47;10.40;;;2.50;;
74624;SDS011;63131;52.298;8.056;2023-03-26T00:23:11;9.13;;;2.25;;
74624;SDS011;63131;52.298;8.056;2023-03-26T00:26:38;8.30;;;2.95;;
74624;SDS011;63131;52.298;8.056;2023-03-26T00:30:03;10.27;;;3.47;;
74624;SDS011;63131;52.298;8.056;2023-03-26T00:33:28;13.20;;;3.63;;
74624;SDS011;63131;52.298;8.056;2023-03-26T00:36:52;8.75;;;3.15;;
74624;SDS011;63131;52.298;8.056;2023-03-26T00:40:17;11.95;;;3.15;;
74624;SDS011;63131;52.298;8.056;2023-03-26T00:43:46;7.65;;;2.78;;
74624;SDS011;63131;52.298;8.056;2023-03-26T00:47:10;7.60;;;2.60;;
74624;SDS011;63131;52.298;8.056;2023-03-26T00:50:34;9.40;;;2.28;;
74624;SDS011;63131;52.298;8.056;2023-03-26T00:53:58;11.63;;;2.30;;
74624;SDS011;63131;52.298;8.056;2023-03-26T00:57:22;6.78;;;2.25;;
74624;SDS011;63131;52.298;8.056;2023-03-26T01:00:50;6.68;;;1.83;;
74624;SDS011;63131;52.298;8.056;2023-03-26T01:04:23;7.47;;;2.25;;
74624;SDS011;63131;52.298;8.056;2023-03-26T01:07:57;8.27;;;2.22;;
74624;SDS011;63131;52.298;8.056;2023-03-26T01:11:28;9.95;;;2.58;;
74624;SDS011;63131;52.298;8.056;2023-03-26T01:14:56;8.25;;;2.22;;
74624;SDS011;63131;52.298;8.056;2023-03-26T01:18:22;8.00;;;2.35;;
74624;SDS011;63131;52.298;8.056;2023-03-26T01:22:04;10.18;;;2.85;;
74624;SDS011;63131;52.298;8.056;2023-03-26T01:25:30;10.27;;;2.60;;
74624;SDS011;63131;52.298;8.056;2023-03-26T01:29:05;9.48;;;2.53;;
74624;SDS011;63131;52.298;8.056;2023-03-26T01:36:50;13.90;;;3.33;;
74624;SDS011;63131;52.298;8.056;2023-03-26T01:44:29;10.07;;;3.55;;
74624;SDS011;63131;52.298;8.056;2023-03-26T01:47:56;8.57;;;3.28;;
74624;SDS011;63131;52.298;8.056;2023-03-26T01:51:27;10.00;;;3.05;;
74624;SDS011;63131;52.298;8.056;2023-03-26T01:54:52;9.38;;;3.60;;
74624;SDS011;63131;52.298;8.056;2023-03-26T02:02:35;11.30;;;3.00;;
74624;SDS011;63131;52.298;8.056;2023-03-26T02:06:09;8.85;;;3.67;;
74624;SDS011;63131;52.298;8.056;2023-03-26T02:09:59;11.10;;;3.40;;
74624;SDS011;63131;52.298;8.056;2023-03-26T02:13:29;11.30;;;3.42;;
74624;SDS011;63131;52.298;8.056;2023-03-26T02:16:53;9.68;;;3.13;;
74624;SDS011;63131;52.298;8.056;2023-03-26T02:20:18;10.30;;;3.70;;
74624;SDS011;63131;52.298;8.056;2023-03-26T02:23:50;10.90;;;3.60;;
74624;SDS011;63131;52.298;8.056;2023-03-26T02:27:14;11.38;;;3.88;;
74624;SDS011;63131;52.298;8.056;2023-03-26T02:30:38;9.55;;;3.35;;
74624;SDS011;63131;52.298;8.056;2023-03-26T02:34:02;15.35;;;3.67;;
74624;SDS011;63131;52.298;8.056;2023-03-26T02:37:26;8.48;;;2.47;;
74624;SDS011;63131;52.298;8.056;2023-03-26T02:40:51;11.32;;;2.63;;
74624;SDS011;63131;52.298;8.056;2023-03-26T02:44:14;10.18;;;3.47;;
74624;SDS011;63131;52.298;8.056;2023-03-26T02:47:39;12.18;;;3.03;;
74624;SDS011;63131;52.298;8.056;2023-03-26T02:51:05;10.80;;;2.55;;
74624;SDS011;63131;52.298;8.056;2023-03-26T02:54:30;8.68;;;2.45;;
74624;SDS011;63131;52.298;8.056;2023-03-26T02:57:54;11.95;;;2.88;;
74624;SDS011;63131;52.298;8.056;2023-03-26T03:01:18;12.23;;;2.95;;
74624;SDS011;63131;52.298;8.056;2023-03-26T03:04:43;9.98;;;2.33;;
74624;SDS011;63131;52.298;8.056;2023-03-26T03:08:07;8.73;;;2.58;;
74624;SDS011;63131;52.298;8.056;2023-03-26T03:11:32;10.07;;;3.40;;
74624;SDS011;63131;52.298;8.056;2023-03-26T03:14:56;10.98;;;2.92;;
74624;SDS011;63131;52.298;8.056;2023-03-26T03:18:20;12.45;;;3.40;;
74624;SDS011;63131;52.298;8.056;2023-03-26T03:21:44;12.57;;;2.97;;
74624;SDS011;63131;52.298;8.056;2023-03-26T03:25:08;8.18;;;2.55;;
74624;SDS011;63131;52.298;8.056;2023-03-26T03:28:36;8.88;;;3.08;;
74624;SDS011;63131;52.298;8.056;2023-03-26T03:32:01;11.00;;;3.65;;
74624;SDS011;63131;52.298;8.056;2023-03-26T03:35:26;11.15;;;3.45;;
74624;SDS011;63131;52.298;8.056;2023-03-26T03:38:51;12.65;;;3.30;;
74624;SDS011;63131;52.298;8.056;2023-03-26T03:42:15;11.05;;;3.85;;
74624;SDS011;63131;52.298;8.056;2023-03-26T03:45:39;8.43;;;3.78;;
74624;SDS011;63131;52.298;8.056;2023-03-26T03:49:03;12.05;;;4.13;;
74624;SDS011;63131;52.298;8.056;2023-03-26T03:52:27;11.00;;;3.75;;
74624;SDS011;63131;52.298;8.056;2023-03-26T03:55:52;12.98;;;4.63;;
74624;SDS011;63131;52.298;8.056;2023-03-26T03:59:16;12.55;;;3.85;;
74624;SDS011;63131;52.298;8.056;2023-03-26T04:02:40;12.60;;;3.88;;
74624;SDS011;63131;52.298;8.056;2023-03-26T04:06:05;14.05;;;4.20;;
74624;SDS011;63131;52.298;8.056;2023-03-26T04:09:29;12.70;;;4.78;;
74624;SDS011;63131;52.298;8.056;2023-03-26T04:12:53;13.68;;;3.72;;
74624;SDS011;63131;52.298;8.056;2023-03-26T04:16:17;11.80;;;4.07;;
74624;SDS011;63131;52.298;8.056;2023-03-26T04:19:40;12.63;;;4.25;;
74624;SDS011;63131;52.298;8.056;2023-03-26T04:23:10;13.55;;;3.60;;
74624;SDS011;63131;52.298;8.056;2023-03-26T04:26:34;13.38;;;4.55;;
74624;SDS011;63131;52.298;8.056;2023-03-26T04:30:00;11.32;;;4.47;;
74624;SDS011;63131;52.298;8.056;2023-03-26T04:33:26;12.52;;;3.85;;
74624;SDS011;63131;52.298;8.056;2023-03-26T04:36:51;18.10;;;4.75;;
74624;SDS011;63131;52.298;8.056;2023-03-26T04:40:17;15.40;;;4.55;;
74624;SDS011;63131;52.298;8.056;2023-03-26T04:43:41;11.40;;;3.97;;
74624;SDS011;63131;52.298;8.056;2023-03-26T04:47:06;13.07;;;4.13;;
74624;SDS011;63131;52.298;8.056;2023-03-26T04:50:31;13.50;;;4.57;;
74624;SDS011;63131;52.298;8.056;2023-03-26T04:53:59;14.38;;;4.53;;
74624;SDS011;63131;52.298;8.056;2023-03-26T04:57:27;14.98;;;4.10;;
74624;SDS011;63131;52.298;8.056;2023-03-26T05:00:58;10.57;;;4.70;;
74624;SDS011;63131;52.298;8.056;2023-03-26T05:04:24;12.05;;;4.10;;
74624;SDS011;63131;52.298;8.056;2023-03-26T05:07:48;11.15;;;4.75;;
74624;SDS011;63131;52.298;8.056;2023-03-26T05:11:12;13.70;;;4.18;;
74624;SDS011;63131;52.298;8.056;2023-03-26T05:14:36;11.98;;;4.38;;
74624;SDS011;63131;52.298;8.056;2023-03-26T05:18:00;11.73;;;4.38;;
74624;SDS011;63131;52.298;8.056;2023-03-26T05:21:23;12.27;;;4.70;;
74624;SDS011;63131;52.298;8.056;2023-03-26T05:24:47;10.48;;;3.90;;
74624;SDS011;63131;52.298;8.056;2023-03-26T05:28:11;11.65;;;4.22;;
74624;SDS011;63131;52.298;8.056;2023-03-26T05:31:35;14.05;;;4.47;;
74624;SDS011;63131;52.298;8.056;2023-03-26T05:34:59;13.10;;;4.22;;
74624;SDS011;63131;52.298;8.056;2023-03-26T05:38:25;9.05;;;3.85;;
74624;SDS011;63131;52.298;8.056;2023-03-26T05:41:50;15.10;;;4.20;;
74624;SDS011;63131;52.298;8.056;2023-03-26T05:45:15;10.73;;;4.00;;
74624;SDS011;63131;52.298;8.056;2023-03-26T05:48:39;12.30;;;3.97;;
74624;SDS011;63131;52.298;8.056;2023-03-26T05:52:03;12.25;;;4.22;;
74624;SDS011;63131;52.298;8.056;2023-03-26T05:55:27;14.57;;;4.03;;
74624;SDS011;63131;52.298;8.056;2023-03-26T05:58:50;12.77;;;4.97;;
74624;SDS011;63131;52.298;8.056;2023-03-26T06:02:14;10.80;;;4.22;;
74624;SDS011;63131;52.298;8.056;2023-03-26T06:05:40;12.00;;;3.92;;
74624;SDS011;63131;52.298;8.056;2023-03-26T06:09:04;9.25;;;3.50;;
74624;SDS011;63131;52.298;8.056;2023-03-26T06:12:28;15.10;;;4.95;;
74624;SDS011;63131;52.298;8.056;2023-03-26T06:15:52;12.18;;;4.45;;
74624;SDS011;63131;52.298;8.056;2023-03-26T06:19:16;12.35;;;3.83;;
74624;SDS011;63131;52.298;8.056;2023-03-26T06:22:40;11.82;;;4.78;;
74624;SDS011;63131;52.298;8.056;2023-03-26T06:26:04;14.60;;;5.28;;
74624;SDS011;63131;52.298;8.056;2023-03-26T06:29:31;13.60;;;5.00;;
74624;SDS011;63131;52.298;8.056;2023-03-26T06:32:55;13.82;;;5.25;;
74624;SDS011;63131;52.298;8.056;2023-03-26T06:36:19;12.55;;;4.70;;
74624;SDS011;63131;52.298;8.056;2023-03-26T06:39:42;12.65;;;5.05;;
74624;SDS011;63131;52.298;8.056;2023-03-26T06:43:06;13.77;;;5.10;;
74624;SDS011;63131;52.298;8.056;2023-03-26T06:46:30;13.13;;;4.95;;
74624;SDS011;63131;52.298;8.056;2023-03-26T06:49:54;11.77;;;4.78;;
74624;SDS011;63131;52.298;8.056;2023-03-26T06:53:37;13.73;;;5.45;;
74624;SDS011;63131;52.298;8.056;2023-03-26T06:57:00;13.15;;;5.05;;
74624;SDS011;63131;52.298;8.056;2023-03-26T07:00:24;13.25;;;5.13;;
74624;SDS011;63131;52.298;8.056;2023-03-26T07:03:48;15.48;;;4.82;;
74624;SDS011;63131;52.298;8.056;2023-03-26T07:07:12;16.50;;;5.55;;
74624;SDS011;63131;52.298;8.056;2023-03-26T07:10:36;16.40;;;5.93;;
74624;SDS011;63131;52.298;8.056;2023-03-26T07:14:00;15.43;;;6.55;;
74624;SDS011;63131;52.298;8.056;2023-03-26T07:17:24;14.07;;;5.15;;
74624;SDS011;63131;52.298;8.056;2023-03-26T07:20:48;12.05;;;5.07;;
74624;SDS011;63131;52.298;8.056;2023-03-26T07:24:12;11.63;;;5.10;;
74624;SDS011;63131;52.298;8.056;2023-03-26T07:27:58;11.95;;;6.05;;
74624;SDS011;63131;52.298;8.056;2023-03-26T07:31:34;15.65;;;6.03;;
74624;SDS011;63131;52.298;8.056;2023-03-26T07:35:01;14.65;;;5.10;;
74624;SDS011;63131;52.298;8.056;2023-03-26T07:45:43;12.02;;;5.00;;
74624;SDS011;63131;52.298;8.056;2023-03-26T07:49:08;14.60;;;6.05;;
74624;SDS011;63131;52.298;8.056;2023-03-26T07:52:37;16.65;;;6.10;;
74624;SDS011;63131;52.298;8.056;2023-03-26T08:06:58;14.68;;;4.68;;
74624;SDS011;63131;52.298;8.056;2023-03-26T08:18:21;12.02;;;4.13;;
74624;SDS011;63131;52.298;8.056;2023-03-26T08:21:54;13.45;;;4.68;;
74624;SDS011;63131;52.298;8.056;2023-03-26T08:25:25;9.18;;;3.85;;
74624;SDS011;63131;52.298;8.056;2023-03-26T08:32:39;12.48;;;4.72;;
74624;SDS011;63131;52.298;8.056;2023-03-26T08:36:05;13.73;;;5.43;;
74624;SDS011;63131;52.298;8.056;2023-03-26T08:39:29;17.33;;;5.38;;
74624;SDS011;63131;52.298;8.056;2023-03-26T08:43:17;13.13;;;4.78;;
74624;SDS011;63131;52.298;8.056;2023-03-26T08:57:49;12.60;;;4.25;;
74624;SDS011;63131;52.298;8.056;2023-03-26T09:16:45;12.13;;;5.10;;
74624;SDS011;63131;52.298;8.056;2023-03-26T09:38:41;16.65;;;4.72;;
74624;SDS011;63131;52.298;8.056;2023-03-26T09:42:18;12.65;;;4.85;;
74624;SDS011;63131;52.298;8.056;2023-03-26T09:46:20;12.07;;;4.50;;
74624;SDS011;63131;52.298;8.056;2023-03-26T09:49:50;14.98;;;4.70;;
74624;SDS011;63131;52.298;8.056;2023-03-26T09:53:19;10.60;;;4.35;;
74624;SDS011;63131;52.298;8.056;2023-03-26T09:57:14;10.25;;;4.88;;
74624;SDS011;63131;52.298;8.056;2023-03-26T10:15:30;11.50;;;4.38;;
74624;SDS011;63131;52.298;8.056;2023-03-26T10:30:25;11.98;;;4.05;;
74624;SDS011;63131;52.298;8.056;2023-03-26T10:38:27;9.00;;;3.20;;
74624;SDS011;63131;52.298;8.056;2023-03-26T10:53:53;11.35;;;3.28;;
74624;SDS011;63131;52.298;8.056;2023-03-26T11:01:05;12.00;;;3.55;;
74624;SDS011;63131;52.298;8.056;2023-03-26T11:05:02;8.20;;;3.03;;
74624;SDS011;63131;52.298;8.056;2023-03-26T11:19:42;8.88;;;3.25;;
74624;SDS011;63131;52.298;8.056;2023-03-26T11:33:55;10.70;;;3.03;;
74624;SDS011;63131;52.298;8.056;2023-03-26T11:37:42;10.77;;;2.58;;
74624;SDS011;63131;52.298;8.056;2023-03-26T11:41:14;10.73;;;2.47;;
74624;SDS011;63131;52.298;8.056;2023-03-26T11:44:50;9.27;;;2.40;;
74624;SDS011;63131;52.298;8.056;2023-03-26T11:51:41;9.45;;;2.60;;
74624;SDS011;63131;52.298;8.056;2023-03-26T11:55:09;6.70;;;2.33;;
74624;SDS011;63131;52.298;8.056;2023-03-26T11:58:44;8.07;;;2.47;;
74624;SDS011;63131;52.298;8.056;2023-03-26T12:05:53;11.02;;;3.10;;
74624;SDS011;63131;52.298;8.056;2023-03-26T12:09:29;11.25;;;2.50;;
74624;SDS011;63131;52.298;8.056;2023-03-26T12:12:53;7.80;;;2.70;;
74624;SDS011;63131;52.298;8.056;2023-03-26T12:16:25;10.52;;;3.03;;
74624;SDS011;63131;52.298;8.056;2023-03-26T12:19:51;9.50;;;3.30;;
74624;SDS011;63131;52.298;8.056;2023-03-26T12:23:36;11.40;;;3.42;;
74624;SDS011;63131;52.298;8.056;2023-03-26T12:27:46;11.73;;;3.75;;
74624;SDS011;63131;52.298;8.056;2023-03-26T12:30:56;9.50;;;3.08;;
74624;SDS011;63131;52.298;8.056;2023-03-26T12:34:21;14.10;;;4.28;;
74624;SDS011;63131;52.298;8.056;2023-03-26T12:37:53;13.38;;;3.90;;
74624;SDS011;63131;52.298;8.056;2023-03-26T12:41:19;11.90;;;4.55;;
74624;SDS011;63131;52.298;8.056;2023-03-26T12:44:51;10.05;;;4.20;;
74624;SDS011;63131;52.298;8.056;2023-03-26T12:48:18;13.77;;;4.70;;
74624;SDS011;63131;52.298;8.056;2023-03-26T12:51:49;16.17;;;4.60;;
74624;SDS011;63131;52.298;8.056;2023-03-26T13:06:41;11.20;;;3.72;;
74624;SDS011;63131;52.298;8.056;2023-03-26T13:10:26;8.63;;;3.38;;
74624;SDS011;63131;52.298;8.056;2023-03-26T13:17:42;10.82;;;3.83;;
74624;SDS011;63131;52.298;8.056;2023-03-26T13:25:37;13.40;;;4.43;;
74624;SDS011;63131;52.298;8.056;2023-03-26T13:48:07;13.60;;;4.50;;
74624;SDS011;63131;52.298;8.056;2023-03-26T13:59:20;12.68;;;4.20;;
74624;SDS011;63131;52.298;8.056;2023-03-26T14:03:06;14.50;;;4.28;;
74624;SDS011;63131;52.298;8.056;2023-03-26T14:10:11;11.60;;;3.95;;
74624;SDS011;63131;52.298;8.056;2023-03-26T14:13:39;9.75;;;4.30;;
74624;SDS011;63131;52.298;8.056;2023-03-26T14:17:26;9.35;;;3.70;;
74624;SDS011;63131;52.298;8.056;2023-03-26T14:24:47;10.68;;;4.10;;
74624;SDS011;63131;52.298;8.056;2023-03-26T14:47:17;10.27;;;3.08;;
74624;SDS011;63131;52.298;8.056;2023-03-26T14:54:47;8.45;;;2.65;;
74624;SDS011;63131;52.298;8.056;2023-03-26T15:40:32;8.85;;;2.03;;
74624;SDS011;63131;52.298;8.056;2023-03-26T15:44:16;5.57;;;2.13;;
74624;SDS011;63131;52.298;8.056;2023-03-26T16:04:09;10.68;;;2.00;;
74624;SDS011;63131;52.298;8.056;2023-03-26T16:18:57;6.63;;;1.13;;
74624;SDS011;63131;52.298;8.056;2023-03-26T16:23:00;9.50;;;1.83;;
74624;SDS011;63131;52.298;8.056;2023-03-26T16:27:24;6.40;;;1.80;;
74624;SDS011;63131;52.298;8.056;2023-03-26T16:30:34;5.78;;;1.75;;
74624;SDS011;63131;52.298;8.056;2023-03-26T16:41:26;8.70;;;2.25;;
74624;SDS011;63131;52.298;8.056;2023-03-26T16:48:47;7.72;;;2.00;;
74624;SDS011;63131;52.298;8.056;2023-03-26T16:52:20;9.07;;;2.33;;
74624;SDS011;63131;52.298;8.056;2023-03-26T17:03:32;8.60;;;1.88;;
74624;SDS011;63131;52.298;8.056;2023-03-26T17:07:20;8.43;;;1.98;;
74624;SDS011;63131;52.298;8.056;2023-03-26T17:19:06;6.68;;;1.73;;
74624;SDS011;63131;52.298;8.056;2023-03-26T17:22:42;8.85;;;1.90;;
74624;SDS011;63131;52.298;8.056;2023-03-26T17:26:15;7.35;;;1.70;;
74624;SDS011;63131;52.298;8.056;2023-03-26T17:33:38;6.13;;;1.30;;
74624;SDS011;63131;52.298;8.056;2023-03-26T17:37:03;6.60;;;1.60;;
74624;SDS011;63131;52.298;8.056;2023-03-26T17:40:44;8.68;;;2.05;;
74624;SDS011;63131;52.298;8.056;2023-03-26T17:44:34;7.65;;;1.80;;
74624;SDS011;63131;52.298;8.056;2023-03-26T17:48:01;6.55;;;1.50;;
74624;SDS011;63131;52.298;8.056;2023-03-26T17:51:36;5.47;;;1.30;;
74624;SDS011;63131;52.298;8.056;2023-03-26T17:55:21;9.48;;;1.88;;
74624;SDS011;63131;52.298;8.056;2023-03-26T17:58:48;11.45;;;2.38;;
74624;SDS011;63131;52.298;8.056;2023-03-26T18:02:35;7.22;;;1.40;;
74624;SDS011;63131;52.298;8.056;2023-03-26T18:06:04;7.35;;;1.92;;
74624;SDS011;63131;52.298;8.056;2023-03-26T18:13:26;7.20;;;1.23;;
74624;SDS011;63131;52.298;8.056;2023-03-26T18:17:16;6.00;;;1.20;;
74624;SDS011;63131;52.298;8.056;2023-03-26T18:20:47;8.15;;;1.60;;
74624;SDS011;63131;52.298;8.056;2023-03-26T18:27:49;5.63;;;1.00;;
74624;SDS011;63131;52.298;8.056;2023-03-26T18:31:26;5.13;;;1.20;;
74624;SDS011;63131;52.298;8.056;2023-03-26T18:35:11;5.07;;;0.88;;
74624;SDS011;63131;52.298;8.056;2023-03-26T18:38:36;6.13;;;0.93;;
74624;SDS011;63131;52.298;8.056;2023-03-26T18:42:00;4.18;;;1.25;;
74624;SDS011;63131;52.298;8.056;2023-03-26T18:45:26;6.28;;;1.05;;
74624;SDS011;63131;52.298;8.056;2023-03-26T18:48:52;12.32;;;1.27;;
74624;SDS011;63131;52.298;8.056;2023-03-26T18:52:18;7.20;;;1.00;;
74624;SDS011;63131;52.298;8.056;2023-03-26T18:55:44;4.50;;;0.88;;
74624;SDS011;63131;52.298;8.056;2023-03-26T18:59:30;5.93;;;1.15;;
74624;SDS011;63131;52.298;8.056;2023-03-26T19:03:02;6.50;;;1.40;;
74624;SDS011;63131;52.298;8.056;2023-03-26T19:06:30;2.47;;;0.82;;
74624;SDS011;63131;52.298;8.056;2023-03-26T19:09:55;6.57;;;1.20;;
74624;SDS011;63131;52.298;8.056;2023-03-26T19:13:19;6.53;;;2.75;;
74624;SDS011;63131;52.298;8.056;2023-03-26T19:16:45;7.28;;;1.40;;
74624;SDS011;63131;52.298;8.056;2023-03-26T19:20:15;7.07;;;1.20;;
74624;SDS011;63131;52.298;8.056;2023-03-26T19:23:42;4.20;;;1.27;;
74624;SDS011;63131;52.298;8.056;2023-03-26T19:27:06;7.95;;;1.65;;
74624;SDS011;63131;52.298;8.056;2023-03-26T19:30:31;7.35;;;1.42;;
74624;SDS011;63131;52.298;8.056;2023-03-26T19:37:23;6.90;;;1.33;;
74624;SDS011;63131;52.298;8.056;2023-03-26T19:40:55;4.40;;;1.27;;
74624;SDS011;63131;52.298;8.056;2023-03-26T19:47:45;5.75;;;1.33;;
74624;SDS011;63131;52.298;8.056;2023-03-26T19:51:13;8.98;;;1.90;;
74624;SDS011;63131;52.298;8.056;2023-03-26T19:54:51;6.28;;;1.10;;
74624;SDS011;63131;52.298;8.056;2023-03-26T19:58:19;9.98;;;1.40;;
74624;SDS011;63131;52.298;8.056;2023-03-26T20:01:43;6.70;;;1.27;;
74624;SDS011;63131;52.298;8.056;2023-03-26T20:08:43;6.22;;;1.30;;
74624;SDS011;63131;52.298;8.056;2023-03-26T20:12:09;6.82;;;1.15;;
74624;SDS011;63131;52.298;8.056;2023-03-26T20:15:40;5.97;;;1.17;;
74624;SDS011;63131;52.298;8.056;2023-03-26T20:19:04;1.95;;;0.80;;
74624;SDS011;63131;52.298;8.056;2023-03-26T20:22:29;6.35;;;1.20;;
74624;SDS011;63131;52.298;8.056;2023-03-26T20:25:53;6.47;;;1.42;;
74624;SDS011;63131;52.298;8.056;2023-03-26T20:29:17;3.95;;;1.35;;
74624;SDS011;63131;52.298;8.056;2023-03-26T20:32:41;10.90;;;1.73;;
74624;SDS011;63131;52.298;8.056;2023-03-26T20:36:07;5.50;;;1.13;;
74624;SDS011;63131;52.298;8.056;2023-03-26T20:39:31;6.80;;;1.50;;
74624;SDS011;63131;52.298;8.056;2023-03-26T20:42:55;4.72;;;1.17;;
74624;SDS011;63131;52.298;8.056;2023-03-26T20:46:20;6.53;;;1.13;;
74624;SDS011;63131;52.298;8.056;2023-03-26T20:49:45;9.38;;;1.40;;
74624;SDS011;63131;52.298;8.056;2023-03-26T20:53:10;5.03;;;1.05;;
74624;SDS011;63131;52.298;8.056;2023-03-26T21:00:02;7.20;;;0.85;;
74624;SDS011;63131;52.298;8.056;2023-03-26T21:03:26;7.82;;;1.42;;
74624;SDS011;63131;52.298;8.056;2023-03-26T21:06:51;7.90;;;1.42;;
74624;SDS011;63131;52.298;8.056;2023-03-26T21:10:19;4.93;;;1.08;;
74624;SDS011;63131;52.298;8.056;2023-03-26T21:13:58;3.88;;;1.30;;
74624;SDS011;63131;52.298;8.056;2023-03-26T21:17:23;6.38;;;1.15;;
74624;SDS011;63131;52.298;8.056;2023-03-26T21:20:50;4.70;;;1.52;;
74624;SDS011;63131;52.298;8.056;2023-03-26T21:24:26;11.75;;;1.67;;
74624;SDS011;63131;52.298;8.056;2023-03-26T21:28:09;4.30;;;1.00;;
74624;SDS011;63131;52.298;8.056;2023-03-26T21:35:00;3.78;;;0.77;;
74624;SDS011;63131;52.298;8.056;2023-03-26T21:38:25;8.98;;;1.60;;
74624;SDS011;63131;52.298;8.056;2023-03-26T21:41:50;2.90;;;1.40;;
74624;SDS011;63131;52.298;8.056;2023-03-26T21:45:15;5.88;;;1.10;;
74624;SDS011;63131;52.298;8.056;2023-03-26T21:48:40;7.60;;;1.25;;
74624;SDS011;63131;52.298;8.056;2023-03-26T21:52:04;5.53;;;1.73;;
74624;SDS011;63131;52.298;8.056;2023-03-26T21:55:28;7.85;;;1.05;;
74624;SDS011;63131;52.298;8.056;2023-03-26T21:59:03;5.95;;;1.58;;
74624;SDS011;63131;52.298;8.056;2023-03-26T22:02:48;9.40;;;1.27;;
74624;SDS011;63131;52.298;8.056;2023-03-26T22:10:22;5.18;;;1.52;;
74624;SDS011;63131;52.298;8.056;2023-03-26T22:13:46;5.30;;;0.95;;
74624;SDS011;63131;52.298;8.056;2023-03-26T22:17:10;6.60;;;2.05;;
74624;SDS011;63131;52.298;8.056;2023-03-26T22:20:34;5.15;;;0.98;;
74624;SDS011;63131;52.298;8.056;2023-03-26T22:23:59;7.88;;;1.50;;
74624;SDS011;63131;52.298;8.056;2023-03-26T22:27:23;4.30;;;0.90;;
74624;SDS011;63131;52.298;8.056;2023-03-26T22:30:47;4.60;;;0.95;;
74624;SDS011;63131;52.298;8.056;2023-03-26T22:34:11;6.93;;;1.25;;
74624;SDS011;63131;52.298;8.056;2023-03-26T22:37:35;4.38;;;0.90;;
74624;SDS011;63131;52.298;8.056;2023-03-26T22:40:59;5.55;;;1.35;;
74624;SDS011;63131;52.298;8.056;2023-03-26T22:44:25;4.80;;;0.98;;
74624;SDS011;63131;52.298;8.056;2023-03-26T22:47:50;7.55;;;1.52;;
74624;SDS011;63131;52.298;8.056;2023-03-26T22:51:14;2.97;;;1.08;;
74624;SDS011;63131;52.298;8.056;2023-03-26T22:54:38;5.93;;;0.98;;
74624;SDS011;63131;52.298;8.056;2023-03-26T22:58:02;13.60;;;1.10;;
74624;SDS011;63131;52.298;8.056;2023-03-26T23:01:27;6.22;;;1.75;;
74624;SDS011;63131;52.298;8.056;2023-03-26T23:04:51;7.28;;;1.10;;
74624;SDS011;63131;52.298;8.056;2023-03-26T23:08:19;6.75;;;1.40;;
74624;SDS011;63131;52.298;8.056;2023-03-26T23:11:44;3.28;;;1.08;;
74624;SDS011;63131;52.298;8.056;2023-03-26T23:15:08;3.08;;;0.85;;
74624;SDS011;63131;52.298;8.056;2023-03-26T23:18:32;3.92;;;0.90;;
74624;SDS011;63131;52.298;8.056;2023-03-26T23:21:58;5.60;;;1.10;;
74624;SDS011;63131;52.298;8.056;2023-03-26T23:25:21;6.43;;;1.10;;
74624;SDS011;63131;52.298;8.056;2023-03-26T23:28:46;3.20;;;1.42;;
74624;SDS011;63131;52.298;8.056;2023-03-26T23:32:10;10.48;;;1.40;;
74624;SDS011;63131;52.298;8.056;2023-03-26T23:35:35;3.50;;;0.80;;
74624;SDS011;63131;52.298;8.056;2023-03-26T23:38:59;5.70;;;1.73;;
74624;SDS011;63131;52.298;8.056;2023-03-26T23:42:23;4.43;;;1.00;;
74624;SDS011;63131;52.298;8.056;2023-03-26T23:45:47;9.10;;;1.20;;
74624;SDS011;63131;52.298;8.056;2023-03-26T23:49:12;8.02;;;0.80;;
74624;SDS011;63131;52.298;8.056;2023-03-26T23:52:36;8.48;;;1.52;;
74624;SDS011;63131;52.298;8.056;2023-03-26T23:56:00;7.32;;;1.50;;
74624;SDS011;63131;52.298;8.056;2023-03-26T23:59:27;3.10;;;1.23;;
